Raleigh, WV (25911)

11:06 AM EST on February 07, 2016 (GMT -0500)
Raleigh County Memorial | | Change Station
CLOSE
Current Station
Airport
Location: Beckley,
Elevation: 2513 ft
Nearby Weather Stations

Elev 2513 ft 37.79 °N, 81.12 °W | Updated 15 minutes ago

Clear
Clear
40 °F
Feels Like 37 °F
N
5
Wind Variable Wind from North

Today
High -- | Low -- °F
--% Chance of Precip.
Yesterday
High -- | Low -- °F
Precip. -- in
Pressure 30.15 in
Visibility 10.0 miles
Clouds Clear
Windchill 37 °F
Dew Point 21 °F
Humidity 47%
Rainfall 0.00 in
Snow Depth Not available.
7:23 AM 5:54 PM
Waning Crescent, 1% visible
METAR KBKW 071551Z AUTO 01004KT 10SM CLR 04/M06 A3010 RMK AO2 SLP209 T00441061
Pressure 30.15 in
Visibility 10.0 miles
Clouds Clear
Windchill 37 °F
Dew Point 21 °F
Humidity 47%
Rainfall 0.00 in
Snow Depth Not available.
7:23 AM 5:54 PM
Waning Crescent, 1% visible
METAR KBKW 071551Z AUTO 01004KT 10SM CLR 04/M06 A3010 RMK AO2 SLP209 T00441061

10-Day Weather Forecast

Almanac

Astronomy

Feb. 07, 2016 Rise Set
Actual Time
Civil Twilight
Nautical Twilight
Astronomical Twilight
Moon
Length of Visible Light
Length of Day
Tomorrow will be .
, % of the Moon is Illuminated

Today's Extremes

State Highs State Lows

Community

WunderPhotos

Upload Photos

1,891,218 photos uploaded!

WunderBlog® & News

Nearby

Air Quality

  Air Quality AQ Index Pollutant
Not available.

Snow Depth

Station Depth Elevation

Earthquake Activity

City Distance Mag. Time & Date
Minimum magnitude displayed is 2.5.

Coastal Water Temperatures

Place Temperature

Stations

Nearby Weather Stations

Station Location Temp. Windchill Dew Point Humidity Wind Precip. Elev Updated Type
                   

Watches & Warnings

There are currently no watches in effect.